»·PEaware :: N350KT F70-KBUR

N350KT :: F70-KBUR

FLIGHT INFORMATION

Flight Status: Arrived
Operator: Privately registered:
United States
More flights under this callsign
Pilot: Aundrey S. (17120)
Aircraft: PILATUS PC-12 EAGLE
(PC12)
More flights by this aircraft type
Origin: F70 French Valley
United States
Destination: KBUR Bob Hope-Burbank
United States
More flights between these airports :: More routes between these airports
Route: PDZ V197 POM V264 ITSME V186 VNY
File this flight plan on PilotEdge
Remarks:
Altitude:
(Current/Filed)
8,000ft
Speed:
(Current/Filed)
310kts
Departed: 29-Dec-18 11:20 AM
Arrived: 29-Dec-18 11:50 AM
Distance/Time
Traveled:
72nm/0:30
Distance/Time
To Go:
Arrived

Flight Plot

Page will automatically refresh every two minutes.

Flight plan parsing failed; only flown route is shown


Map Options




Map Legend


Flown Route
Filed Route
Departure Airport
Arrival Airport
Navaid (VOR, NDB)
Fix

Horizontal Profiles

Position Reports

Time Latitude Longitude Heading Altitude Ground
Speed
29-Dec-18 10:56 33.572204 -117.130104 103 1354ft 0kts
29-Dec-18 10:57 33.572204 -117.130104 103 1354ft 0kts
29-Dec-18 10:58 33.572204 -117.130104 103 1354ft 0kts
29-Dec-18 10:59 33.572204 -117.130104 103 1354ft 0kts
29-Dec-18 11:00 33.572204 -117.130104 103 1354ft 0kts
29-Dec-18 11:01 33.572204 -117.130104 103 1354ft 0kts
29-Dec-18 11:02 33.572204 -117.130104 103 1354ft 0kts
29-Dec-18 11:03 33.572204 -117.130104 103 1354ft 0kts
29-Dec-18 11:04 33.572204 -117.130104 103 1354ft 0kts
29-Dec-18 11:05 33.572204 -117.130104 103 1354ft 0kts
29-Dec-18 11:06 33.572204 -117.130104 103 1354ft 0kts
29-Dec-18 11:07 33.572204 -117.130104 103 1354ft 0kts
29-Dec-18 11:08 33.572204 -117.130104 103 1354ft 0kts
29-Dec-18 11:09 33.572204 -117.130104 103 1354ft 0kts
29-Dec-18 11:10 33.572204 -117.130104 103 1354ft 0kts
29-Dec-18 11:11 33.572204 -117.130104 103 1354ft 0kts
29-Dec-18 11:12 33.572204 -117.130104 103 1354ft 0kts
29-Dec-18 11:13 33.572204 -117.130104 103 1354ft 0kts
29-Dec-18 11:14 33.572204 -117.130104 103 1354ft 0kts
29-Dec-18 11:15 33.572204 -117.130104 102 1354ft 0kts
29-Dec-18 11:16 33.570961 -117.130138 192 1354ft 16kts
29-Dec-18 11:17 33.566321 -117.131214 127 1354ft 5kts
29-Dec-18 11:18 33.566790 -117.130437 7 1354ft 32kts
29-Dec-18 11:19 33.597447 -117.123034 9 2170ft 138kts
29-Dec-18 11:20 33.630130 -117.137686 278 3467ft 164kts
29-Dec-18 11:21 33.639974 -117.198800 300 4615ft 205kts
29-Dec-18 11:22 33.681408 -117.254439 315 4671ft 239kts
29-Dec-18 11:23 33.728789 -117.309386 315 5284ft 222kts
29-Dec-18 11:24 33.770989 -117.358722 315 6637ft 212kts
29-Dec-18 11:25 33.816640 -117.412007 315 6671ft 241kts
29-Dec-18 11:26 33.864748 -117.468241 315 6670ft 246kts
29-Dec-18 11:27 33.912661 -117.524629 313 6670ft 246kts
29-Dec-18 11:28 33.954798 -117.589711 306 6670ft 247kts
29-Dec-18 11:29 33.994236 -117.653719 306 6670ft 247kts
29-Dec-18 11:30 34.035038 -117.719416 306 6670ft 247kts
29-Dec-18 11:31 34.074210 -117.786977 289 6674ft 246kts
29-Dec-18 11:32 34.077074 -117.869426 267 6670ft 247kts
29-Dec-18 11:33 34.075367 -117.951302 268 7085ft 232kts
29-Dec-18 11:34 34.081590 -118.026594 290 7672ft 237kts
29-Dec-18 11:35 34.104296 -118.102285 290 7670ft 246kts
29-Dec-18 11:36 34.128168 -118.180339 290 7670ft 248kts
29-Dec-18 11:37 34.151966 -118.258301 290 7670ft 248kts
29-Dec-18 11:38 34.175826 -118.336687 290 7670ft 248kts
29-Dec-18 11:39 34.221632 -118.380536 28 7669ft 248kts
29-Dec-18 11:40 34.271409 -118.392660 271 6565ft 231kts
29-Dec-18 11:41 34.263444 -118.468063 261 4775ft 224kts
29-Dec-18 11:42 34.254929 -118.539505 261 3668ft 200kts
29-Dec-18 11:43 34.246409 -118.609569 260 3671ft 219kts
29-Dec-18 11:44 34.207432 -118.606125 95 3702ft 208kts
29-Dec-18 11:45 34.205175 -118.537513 91 3145ft 203kts
29-Dec-18 11:46 34.199495 -118.475324 93 2384ft 165kts
29-Dec-18 11:47 34.198808 -118.428117 91 1914ft 134kts
29-Dec-18 11:48 34.198301 -118.388018 90 1229ft 106kts
29-Dec-18 11:49 34.197784 -118.359138 91 713ft 35kts
29-Dec-18 11:50 34.198392 -118.357976 354 712ft 0kts
29-Dec-18 11:51 34.198392 -118.357976 354 712ft 0kts
29-Dec-18 11:52 34.199354 -118.358038 348 716ft 9kts
29-Dec-18 11:53 34.201825 -118.359282 256 728ft 4kts
29-Dec-18 11:54 34.201814 -118.359329 254 728ft 0kts
29-Dec-18 11:55 34.201814 -118.359329 254 728ft 0kts

Navigation Log

Ident Type
Flight plan parsing failed, navigation log unavailable